Atlant Svenja — V7LK2 — position and weather

sailwx.info

Track history (hours):
 
Tides and Currents Weather Stations Pressure Air Temp Water Temp Dewpoint Dewpoint Depression Visibility Wind Speed Wind Dir Waves Ship Positions

Atlant Svenja

Last reported at 2018-Jan-21 02:44 UTC. Time now 2018-Jan-22 10:40 UTC.
Position N 44°26' E 013°44'.

Length 107 m; draft 7.1 m.

Type: Cargo ship. MMSI: 538002759.

Date/timePositionNaut miles runAvg speedWind from/ knotsBaromVisibWave heightAir tempDewpointWater temp
2018-Jan-21 02:44N 44°26' E 013°44'3 9.3
2018-Jan-21 02:27N 44°28' E 013°42'4 9.2
2018-Jan-21 02:00N 44°31' E 013°39'5 9.0
2018-Jan-21 01:30N 44°35' E 013°35'4 9.2
2018-Jan-21 01:00N 44°39' E 013°32'5 9.1
2018-Jan-21 00:30N 44°43' E 013°28'4 9.0
2018-Jan-21 00:00N 44°46' E 013°25'4 8.9
2018-Jan-20 23:30N 44°50' E 013°21'5 9.1
2018-Jan-20 22:56N 44°55' E 013°17'4 8.9
2018-Jan-20 22:30N 44°58' E 013°14'4 9.0
2018-Jan-20 22:00N 45°01' E 013°11'5 9.0
2018-Jan-20 21:30N 45°05' E 013°07'5 9.0
2018-Jan-20 20:57N 45°10' E 013°04'4 9.2
2018-Jan-20 20:29N 45°14' E 013°03'4 9.2
2018-Jan-20 20:00N 45°18' E 013°01'5 9.3
2018-Jan-20 19:30N 45°23' E 013°01'5 9.5
2018-Jan-20 19:00N 45°26' E 013°05'5 9.8
2018-Jan-20 18:30N 45°29' E 013°11'5 9.8
2018-Jan-20 18:00N 45°32' E 013°16'5 9.6
2018-Jan-20 17:30N 45°34' E 013°22'5 9.7
2018-Jan-20 17:00N 45°36' E 013°29'5 9.7
2018-Jan-20 16:30N 45°38' E 013°35'5 9.1
2018-Jan-20 16:00N 45°39' E 013°42'4 8.0
2018-Jan-20 15:30N 45°37' E 013°47'0 0.0
2018-Jan-20 14:57N 45°37' E 013°47'0 0.0
2018-Jan-20 14:27N 45°37' E 013°47'0 0.0
2018-Jan-20 14:00N 45°37' E 013°47'0 0.0
2018-Jan-20 13:24N 45°37' E 013°47'0 0.0
2018-Jan-20 13:00N 45°37' E 013°47'0 0.0
2018-Jan-20 12:15N 45°37' E 013°47'0 0.0
2018-Jan-20 12:00N 45°37' E 013°47'0 0.0
2018-Jan-20 11:30N 45°37' E 013°47'0 0.0
2018-Jan-20 11:00N 45°37' E 013°47'0 0.0
2018-Jan-20 10:24N 45°37' E 013°47'0 0.0
2018-Jan-20 10:00N 45°37' E 013°47'0 0.0
2018-Jan-20 09:24N 45°37' E 013°47'0 0.0
2018-Jan-20 09:00N 45°37' E 013°47'0 0.0
2018-Jan-20 08:30N 45°37' E 013°47'0 0.0
2018-Jan-20 08:00N 45°37' E 013°47'0 0.0
2018-Jan-20 07:30N 45°37' E 013°47'0 0.0
2018-Jan-20 06:57N 45°37' E 013°47'0 0.0
2018-Jan-20 06:30N 45°37' E 013°47'0 0.0
2018-Jan-20 06:00N 45°37' E 013°47'0 0.0
2018-Jan-20 05:30N 45°37' E 013°47'0 0.0
2018-Jan-20 04:57N 45°37' E 013°47'0 0.0
2018-Jan-20 04:30N 45°37' E 013°47'0 0.0
2018-Jan-20 04:00N 45°37' E 013°47'0 0.0
2018-Jan-20 03:30N 45°37' E 013°47'0 0.0
2018-Jan-20 02:57N 45°37' E 013°47'0 0.0
2018-Jan-20 02:30N 45°37' E 013°47'0 0.0
2018-Jan-20 02:00N 45°37' E 013°47'0 0.0
2018-Jan-20 01:27N 45°37' E 013°47'0 0.0
2018-Jan-20 01:00N 45°37' E 013°47'0 0.0
2018-Jan-20 00:24N 45°37' E 013°47'0 0.0
2018-Jan-20 00:00N 45°37' E 013°47'0 0.0
2018-Jan-19 23:30N 45°37' E 013°47'0 0.0
2018-Jan-19 23:00N 45°37' E 013°47'0 0.0
2018-Jan-19 22:30N 45°37' E 013°47'0 0.0
2018-Jan-19 22:00N 45°37' E 013°47'0 0.0
2018-Jan-19 21:30N 45°37' E 013°47'0 0.0
2018-Jan-19 21:00N 45°37' E 013°47'0 0.0
2018-Jan-19 20:30N 45°37' E 013°47'0 0.0
2018-Jan-19 19:57N 45°37' E 013°47'0 0.0
2018-Jan-19 19:30N 45°37' E 013°47'0 0.0
2018-Jan-19 19:00N 45°37' E 013°47'0 0.0
2018-Jan-19 18:30N 45°37' E 013°47'0 0.0
2018-Jan-19 18:00N 45°37' E 013°47'0 0.0
2018-Jan-19 17:30N 45°37' E 013°47'0 0.0
2018-Jan-19 17:00N 45°37' E 013°47'0 0.8
2018-Jan-19 16:30N 45°37' E 013°46'3 5.8
2018-Jan-19 16:00N 45°39' E 013°42'4 8.0
2018-Jan-19 15:30N 45°37' E 013°37'510.5
2018-Jan-19 15:00N 45°34' E 013°31'510.2
2018-Jan-19 14:30N 45°31' E 013°25'510.3
2018-Jan-19 14:00N 45°28' E 013°19'510.5
2018-Jan-19 13:30N 45°25' E 013°14'5 9.3
2018-Jan-19 13:00N 45°20' E 013°13'510.3
2018-Jan-19 12:30N 45°15' E 013°13'510.3
2018-Jan-19 12:00N 45°10' E 013°13'510.1
2018-Jan-19 11:30N 45°06' E 013°09'510.4
2018-Jan-19 11:00N 45°01' E 013°05'510.5
2018-Jan-19 10:30N 44°57' E 013°00'510.4
2018-Jan-19 10:00N 44°53' E 012°55'510.6
2018-Jan-19 09:30N 44°49' E 012°51'510.5
2018-Jan-19 09:00N 44°45' E 012°46'15 9.9
2018-Jan-19 07:26N 44°32' E 012°33'  
2018-Jan-11 22:10N 35°34' E 024°59'1 8.4
2018-Jan-11 22:00N 35°34' E 025°01'4 8.4
2018-Jan-11 21:30N 35°33' E 025°06'4 8.4
2018-Jan-11 21:00N 35°32' E 025°11'4 7.9
2018-Jan-11 20:30N 35°32' E 025°16'4 8.1
2018-Jan-11 20:00N 35°31' E 025°21'4 9.0
2018-Jan-11 19:30N 35°30' E 025°26'5 9.2
2018-Jan-11 19:00N 35°30' E 025°32'5 9.0
2018-Jan-11 18:30N 35°29' E 025°37'  
Track history (hours):
 
Tides and Currents Weather Stations Pressure Air Temp Water Temp Dewpoint Dewpoint Depression Visibility Wind Speed Wind Dir Waves Ship Positions

Atlant Svenja

Last reported at 2018-Jan-21 02:44 UTC. Time now 2018-Jan-22 10:40 UTC.
Position N 44°26' E 013°44'.

Length 107 m; draft 7.1 m.

Type: Cargo ship. MMSI: 538002759.

Date/timePositionNaut miles runAvg speedWind from/ knotsBaromVisibWave heightAir tempDewpointWater temp
2018-Jan-21 02:44N 44°26' E 013°44'3 9.3
2018-Jan-21 02:27N 44°28' E 013°42'4 9.2
2018-Jan-21 02:00N 44°31' E 013°39'5 9.0
2018-Jan-21 01:30N 44°35' E 013°35'4 9.2
2018-Jan-21 01:00N 44°39' E 013°32'5 9.1
2018-Jan-21 00:30N 44°43' E 013°28'4 9.0
2018-Jan-21 00:00N 44°46' E 013°25'4 8.9
2018-Jan-20 23:30N 44°50' E 013°21'5 9.1
2018-Jan-20 22:56N 44°55' E 013°17'4 8.9
2018-Jan-20 22:30N 44°58' E 013°14'4 9.0
2018-Jan-20 22:00N 45°01' E 013°11'5 9.0
2018-Jan-20 21:30N 45°05' E 013°07'5 9.0
2018-Jan-20 20:57N 45°10' E 013°04'4 9.2
2018-Jan-20 20:29N 45°14' E 013°03'4 9.2
2018-Jan-20 20:00N 45°18' E 013°01'5 9.3
2018-Jan-20 19:30N 45°23' E 013°01'5 9.5
2018-Jan-20 19:00N 45°26' E 013°05'5 9.8
2018-Jan-20 18:30N 45°29' E 013°11'5 9.8
2018-Jan-20 18:00N 45°32' E 013°16'5 9.6
2018-Jan-20 17:30N 45°34' E 013°22'5 9.7
2018-Jan-20 17:00N 45°36' E 013°29'5 9.7
2018-Jan-20 16:30N 45°38' E 013°35'5 9.1
2018-Jan-20 16:00N 45°39' E 013°42'4 8.0
2018-Jan-20 15:30N 45°37' E 013°47'0 0.0
2018-Jan-20 14:57N 45°37' E 013°47'0 0.0
2018-Jan-20 14:27N 45°37' E 013°47'0 0.0
2018-Jan-20 14:00N 45°37' E 013°47'0 0.0
2018-Jan-20 13:24N 45°37' E 013°47'0 0.0
2018-Jan-20 13:00N 45°37' E 013°47'0 0.0
2018-Jan-20 12:15N 45°37' E 013°47'0 0.0
2018-Jan-20 12:00N 45°37' E 013°47'0 0.0
2018-Jan-20 11:30N 45°37' E 013°47'0 0.0
2018-Jan-20 11:00N 45°37' E 013°47'0 0.0
2018-Jan-20 10:24N 45°37' E 013°47'0 0.0
2018-Jan-20 10:00N 45°37' E 013°47'0 0.0
2018-Jan-20 09:24N 45°37' E 013°47'0 0.0
2018-Jan-20 09:00N 45°37' E 013°47'0 0.0
2018-Jan-20 08:30N 45°37' E 013°47'0 0.0
2018-Jan-20 08:00N 45°37' E 013°47'0 0.0
2018-Jan-20 07:30N 45°37' E 013°47'0 0.0
2018-Jan-20 06:57N 45°37' E 013°47'0 0.0
2018-Jan-20 06:30N 45°37' E 013°47'0 0.0
2018-Jan-20 06:00N 45°37' E 013°47'0 0.0
2018-Jan-20 05:30N 45°37' E 013°47'0 0.0
2018-Jan-20 04:57N 45°37' E 013°47'0 0.0
2018-Jan-20 04:30N 45°37' E 013°47'0 0.0
2018-Jan-20 04:00N 45°37' E 013°47'0 0.0
2018-Jan-20 03:30N 45°37' E 013°47'0 0.0
2018-Jan-20 02:57N 45°37' E 013°47'0 0.0
2018-Jan-20 02:30N 45°37' E 013°47'0 0.0
2018-Jan-20 02:00N 45°37' E 013°47'0 0.0
2018-Jan-20 01:27N 45°37' E 013°47'0 0.0
2018-Jan-20 01:00N 45°37' E 013°47'0 0.0
2018-Jan-20 00:24N 45°37' E 013°47'0 0.0
2018-Jan-20 00:00N 45°37' E 013°47'0 0.0
2018-Jan-19 23:30N 45°37' E 013°47'0 0.0
2018-Jan-19 23:00N 45°37' E 013°47'0 0.0
2018-Jan-19 22:30N 45°37' E 013°47'0 0.0
2018-Jan-19 22:00N 45°37' E 013°47'0 0.0
2018-Jan-19 21:30N 45°37' E 013°47'0 0.0
2018-Jan-19 21:00N 45°37' E 013°47'0 0.0
2018-Jan-19 20:30N 45°37' E 013°47'0 0.0
2018-Jan-19 19:57N 45°37' E 013°47'0 0.0
2018-Jan-19 19:30N 45°37' E 013°47'0 0.0
2018-Jan-19 19:00N 45°37' E 013°47'0 0.0
2018-Jan-19 18:30N 45°37' E 013°47'0 0.0
2018-Jan-19 18:00N 45°37' E 013°47'0 0.0
2018-Jan-19 17:30N 45°37' E 013°47'0 0.0
2018-Jan-19 17:00N 45°37' E 013°47'0 0.8
2018-Jan-19 16:30N 45°37' E 013°46'3 5.8
2018-Jan-19 16:00N 45°39' E 013°42'4 8.0
2018-Jan-19 15:30N 45°37' E 013°37'510.5
2018-Jan-19 15:00N 45°34' E 013°31'510.2
2018-Jan-19 14:30N 45°31' E 013°25'510.3
2018-Jan-19 14:00N 45°28' E 013°19'510.5
2018-Jan-19 13:30N 45°25' E 013°14'5 9.3
2018-Jan-19 13:00N 45°20' E 013°13'510.3
2018-Jan-19 12:30N 45°15' E 013°13'510.3
2018-Jan-19 12:00N 45°10' E 013°13'510.1
2018-Jan-19 11:30N 45°06' E 013°09'510.4
2018-Jan-19 11:00N 45°01' E 013°05'510.5
2018-Jan-19 10:30N 44°57' E 013°00'510.4
2018-Jan-19 10:00N 44°53' E 012°55'510.6
2018-Jan-19 09:30N 44°49' E 012°51'510.5
2018-Jan-19 09:00N 44°45' E 012°46'15 9.9
2018-Jan-19 07:26N 44°32' E 012°33'  
2018-Jan-11 22:10N 35°34' E 024°59'1 8.4
2018-Jan-11 22:00N 35°34' E 025°01'4 8.4
2018-Jan-11 21:30N 35°33' E 025°06'4 8.4
2018-Jan-11 21:00N 35°32' E 025°11'4 7.9
2018-Jan-11 20:30N 35°32' E 025°16'4 8.1
2018-Jan-11 20:00N 35°31' E 025°21'4 9.0
2018-Jan-11 19:30N 35°30' E 025°26'5 9.2
2018-Jan-11 19:00N 35°30' E 025°32'5 9.0
2018-Jan-11 18:30N 35°29' E 025°37'  

Dump ship's entire track history